Time;durP1;ratioP1;P1;durP2;ratioP2;P2;SDS_P1;SDS_P2;PMS_P1;PMS_P2;Temp;Humidity;BMP_temperature;BMP_pressure;BME280_temperature;BME280_humidity;BME280_pressure;Samples;Min_cycle;Max_cycle;Signal;HPM_P1;HPM_P2
2023/01/25 00:01:44;;;;;;;18.60;14.50;;;0.60;99.90;;;;;;4970505;28;20567;-65
2023/01/25 00:04:10;;;;;;;17.13;12.90;;;0.60;99.90;;;;;;4986229;28;20050;-64
2023/01/25 00:06:35;;;;;;;18.85;14.45;;;0.60;99.90;;;;;;4983695;28;20084;-65
2023/01/25 00:09:01;;;;;;;19.02;13.85;;;0.60;99.90;;;;;;4985912;28;20038;-64
2023/01/25 00:11:27;;;;;;;17.90;14.32;;;0.60;99.90;;;;;;4986107;28;20050;-64
2023/01/25 00:13:53;;;;;;;19.65;14.30;;;0.50;99.90;;;;;;4985531;28;20412;-65
2023/01/25 00:16:20;;;;;;;19.92;15.32;;;0.60;99.90;;;;;;4986114;28;20042;-65
2023/01/25 00:18:45;;;;;;;19.38;13.90;;;0.50;99.90;;;;;;4968584;28;20038;-64
2023/01/25 00:21:20;;;;;;;18.30;13.98;;;0.50;99.90;;;;;;4968026;28;20642;-65
2023/01/25 00:23:46;;;;;;;19.50;14.48;;;0.50;99.90;;;;;;4969059;28;20069;-65
2023/01/25 00:26:13;;;;;;;19.27;13.77;;;0.50;99.90;;;;;;4985844;28;20530;-65
2023/01/25 00:28:39;;;;;;;19.83;14.23;;;0.50;99.90;;;;;;4985840;28;20497;-64
2023/01/25 00:31:20;;;;;;;18.67;13.95;;;0.50;99.90;;;;;;4987512;28;20045;-64
2023/01/25 00:33:55;;;;;;;18.98;14.15;;;0.50;99.90;;;;;;4987210;28;20043;-65
2023/01/25 00:36:33;;;;;;;20.83;14.70;;;0.50;99.90;;;;;;4988117;28;20050;-65
2023/01/25 00:38:59;;;;;;;18.55;13.45;;;0.40;99.90;;;;;;4987340;28;20147;-65
2023/01/25 00:41:26;;;;;;;20.48;14.65;;;0.40;99.90;;;;;;4987431;28;20050;-65
2023/01/25 00:43:52;;;;;;;17.75;13.65;;;0.40;99.90;;;;;;4986979;28;20377;-64
2023/01/25 00:46:18;;;;;;;20.20;14.57;;;0.40;99.90;;;;;;4986915;28;20038;-64
2023/01/25 00:48:44;;;;;;;20.33;14.15;;;0.40;99.90;;;;;;4966426;28;20105;-65
2023/01/25 00:51:10;;;;;;;20.33;14.50;;;0.40;99.90;;;;;;4980182;28;20038;-64
2023/01/25 00:53:36;;;;;;;20.27;15.30;;;0.40;99.90;;;;;;4953607;28;20050;-65
2023/01/25 00:56:02;;;;;;;22.80;15.52;;;0.40;99.90;;;;;;4986796;28;20038;-64
2023/01/25 00:58:28;;;;;;;22.33;15.18;;;0.40;99.90;;;;;;4986862;28;20057;-65
2023/01/25 01:00:57;;;;;;;21.23;14.60;;;0.50;99.90;;;;;;4984459;28;20046;-65
2023/01/25 01:03:23;;;;;;;20.05;15.00;;;0.40;99.90;;;;;;4954042;28;20425;-64
2023/01/25 01:06:08;;;;;;;19.50;15.02;;;0.30;99.90;;;;;;4987217;28;20046;-65
2023/01/25 01:08:37;;;;;;;21.30;14.18;;;0.30;99.90;;;;;;4989695;28;20101;-65
2023/01/25 01:11:05;;;;;;;22.52;14.65;;;0.30;99.90;;;;;;4991761;28;20347;-65
2023/01/25 01:13:31;;;;;;;21.48;15.30;;;0.40;99.90;;;;;;4990980;28;20050;-65
2023/01/25 01:16:04;;;;;;;19.73;15.02;;;0.40;99.90;;;;;;4990706;28;20038;-64
2023/01/25 01:18:38;;;;;;;19.75;14.50;;;0.30;99.90;;;;;;4990902;28;20053;-64
2023/01/25 01:21:04;;;;;;;22.33;15.88;;;0.30;99.90;;;;;;4973068;28;20054;-64
2023/01/25 01:23:31;;;;;;;20.90;14.50;;;0.30;99.90;;;;;;4974047;28;20544;-65
2023/01/25 01:26:05;;;;;;;22.20;15.00;;;0.30;99.90;;;;;;4989540;28;20042;-64
2023/01/25 01:28:33;;;;;;;23.05;16.30;;;0.30;99.90;;;;;;4977647;28;20047;-64
2023/01/25 01:31:04;;;;;;;21.85;14.77;;;0.40;99.90;;;;;;4972949;28;20130;-65
2023/01/25 01:33:30;;;;;;;21.35;15.38;;;0.40;99.90;;;;;;4991209;28;20038;-64
2023/01/25 01:35:56;;;;;;;23.08;15.82;;;0.30;99.90;;;;;;4956377;28;20118;-65
2023/01/25 01:38:23;;;;;;;22.60;16.15;;;0.40;99.90;;;;;;4973056;28;20114;-65
2023/01/25 01:40:49;;;;;;;22.58;16.77;;;0.30;99.90;;;;;;4989322;28;20054;-64
2023/01/25 01:43:18;;;;;;;20.75;15.05;;;0.30;99.90;;;;;;4990055;28;20073;-65
2023/01/25 01:45:47;;;;;;;20.52;15.05;;;0.30;99.90;;;;;;4990472;28;20126;-65
2023/01/25 01:48:33;;;;;;;24.27;17.10;;;0.30;99.90;;;;;;4990336;28;20436;-64
2023/01/25 01:51:17;;;;;;;26.13;16.63;;;0.30;99.90;;;;;;4972321;28;20568;-65
2023/01/25 01:53:51;;;;;;;22.95;15.35;;;0.30;99.90;;;;;;4989592;28;20405;-65
2023/01/25 01:56:22;;;;;;;25.75;17.08;;;0.30;99.90;;;;;;4990136;28;20047;-64
2023/01/25 01:58:50;;;;;;;25.25;17.35;;;0.30;99.90;;;;;;4989987;28;20049;-64
2023/01/25 02:01:17;;;;;;;25.58;17.42;;;0.30;99.90;;;;;;4988800;28;20137;-65
2023/01/25 02:03:43;;;;;;;23.38;17.35;;;0.30;99.90;;;;;;4989308;28;20054;-65
2023/01/25 02:06:14;;;;;;;26.48;17.15;;;0.30;99.90;;;;;;4990229;28;20398;-65
2023/01/25 02:08:41;;;;;;;;;;;0.30;99.90;;;;;;4990014;28;20527;-65
2023/01/25 02:11:08;;;;;;;25.98;17.88;;;0.30;99.90;;;;;;4990377;28;19925;-64
2023/01/25 02:13:36;;;;;;;26.10;18.15;;;0.30;99.90;;;;;;4989152;28;20461;-64
2023/01/25 02:16:03;;;;;;;22.20;16.58;;;0.30;99.90;;;;;;4972420;28;20911;-65
2023/01/25 02:18:29;;;;;;;26.70;17.75;;;0.30;99.90;;;;;;4971507;28;20046;-65
2023/01/25 02:20:58;;;;;;;25.00;18.08;;;0.40;99.90;;;;;;4988823;28;20124;-65
2023/01/25 02:23:33;;;;;;;25.27;17.67;;;0.40;99.90;;;;;;4972162;28;20042;-64
2023/01/25 02:26:04;;;;;;;27.35;19.00;;;0.40;99.90;;;;;;4971477;28;20137;-65
2023/01/25 02:28:36;;;;;;;26.48;17.80;;;0.30;99.90;;;;;;4972953;28;20061;-65
2023/01/25 02:31:02;;;;;;;28.25;19.50;;;0.30;99.90;;;;;;4988648;28;20070;-65
2023/01/25 02:33:28;;;;;;;28.67;19.88;;;0.30;99.90;;;;;;4989912;28;20433;-65
2023/01/25 02:36:07;;;;;;;26.50;19.70;;;0.30;99.90;;;;;;4989135;28;20089;-65
2023/01/25 02:38:44;;;;;;;27.98;20.25;;;0.30;99.90;;;;;;4989802;28;20054;-65
2023/01/25 02:41:17;;;;;;;26.63;18.23;;;0.30;99.90;;;;;;4989475;28;20519;-65
2023/01/25 02:43:42;;;;;;;29.25;19.75;;;0.30;99.90;;;;;;4988695;28;20042;-64
2023/01/25 02:46:21;;;;;;;29.48;20.38;;;0.20;99.90;;;;;;4989360;28;20041;-65
2023/01/25 02:48:47;;;;;;;31.88;20.80;;;0.20;99.90;;;;;;4989111;28;20053;-64
2023/01/25 02:51:13;;;;;;;34.17;21.90;;;0.10;99.90;;;;;;4989540;28;20601;-65
2023/01/25 02:53:40;;;;;;;30.70;20.52;;;0.10;99.90;;;;;;4971606;28;20054;-65
2023/01/25 02:56:07;;;;;;;33.10;22.15;;;0.10;99.90;;;;;;4987199;28;20045;-65
2023/01/25 02:58:32;;;;;;;28.55;18.40;;;0.10;99.90;;;;;;4989193;28;20408;-65
2023/01/25 03:00:58;;;;;;;30.83;19.80;;;0.10;99.90;;;;;;4988153;28;20046;-65
2023/01/25 03:03:24;;;;;;;29.60;20.20;;;0.00;99.90;;;;;;4971465;28;20200;-65
2023/01/25 03:05:50;;;;;;;24.65;17.42;;;0.00;99.90;;;;;;4970598;28;20507;-65
2023/01/25 03:08:16;;;;;;;30.63;21.67;;;0.00;99.90;;;;;;4988779;28;20049;-65
2023/01/25 03:10:41;;;;;;;31.80;22.25;;;-0.10;99.90;;;;;;4988537;28;20066;-65
2023/01/25 03:13:07;;;;;;;29.55;20.42;;;-0.10;99.90;;;;;;4970039;28;20052;-65
2023/01/25 03:15:33;;;;;;;33.08;21.90;;;-0.10;99.90;;;;;;4989322;28;20141;-65
2023/01/25 03:17:59;;;;;;;34.95;23.85;;;-0.10;99.90;;;;;;4970544;28;20632;-65
2023/01/25 03:20:25;;;;;;;30.23;19.58;;;-0.10;99.90;;;;;;4988535;28;20043;-65
2023/01/25 03:22:50;;;;;;;31.83;22.88;;;-0.10;99.90;;;;;;4969833;28;20041;-65
2023/01/25 03:25:16;;;;;;;30.83;20.27;;;-0.10;99.90;;;;;;4987948;28;20116;-65
2023/01/25 03:27:42;;;;;;;32.67;23.27;;;-0.10;99.90;;;;;;4988116;28;20139;-65
2023/01/25 03:30:09;;;;;;;34.80;23.27;;;-0.10;99.90;;;;;;4987919;28;20077;-65
2023/01/25 03:32:34;;;;;;;34.80;22.05;;;-0.10;99.90;;;;;;4956033;28;20473;-65
2023/01/25 03:35:00;;;;;;;30.40;21.60;;;-0.10;99.90;;;;;;4987894;28;20088;-65
2023/01/25 03:37:28;;;;;;;30.13;21.58;;;-0.10;99.90;;;;;;4988964;28;20608;-65
2023/01/25 03:39:55;;;;;;;34.65;23.10;;;-0.10;99.90;;;;;;4984668;28;20047;-64
2023/01/25 03:42:21;;;;;;;40.80;25.50;;;-0.10;99.90;;;;;;4989029;28;20043;-64
2023/01/25 03:44:47;;;;;;;34.03;23.00;;;-0.10;99.90;;;;;;4987832;28;20069;-65
2023/01/25 03:47:13;;;;;;;35.40;23.98;;;-0.10;99.90;;;;;;4988281;28;20105;-65
2023/01/25 03:49:40;;;;;;;33.78;24.27;;;-0.10;99.90;;;;;;4986517;28;20626;-64
2023/01/25 03:52:05;;;;;;;34.65;22.42;;;-0.10;99.90;;;;;;4969929;28;20046;-65
2023/01/25 03:54:31;;;;;;;36.95;23.27;;;-0.10;99.90;;;;;;4988644;28;20049;-65
2023/01/25 03:56:57;;;;;;;41.55;24.80;;;-0.10;99.90;;;;;;4969586;28;20057;-65
2023/01/25 03:59:23;;;;;;;40.10;23.25;;;0.00;99.90;;;;;;4970889;28;20082;-65
2023/01/25 04:01:48;;;;;;;38.15;23.90;;;-0.10;99.90;;;;;;4987358;28;20086;-65
2023/01/25 04:04:14;;;;;;;37.63;23.98;;;0.00;99.90;;;;;;4987819;28;20101;-65
2023/01/25 04:06:40;;;;;;;37.95;24.23;;;0.00;99.90;;;;;;4986624;28;20050;-65
2023/01/25 04:09:06;;;;;;;42.38;25.08;;;0.00;99.90;;;;;;4987299;28;20481;-65
2023/01/25 04:11:31;;;;;;;38.92;24.83;;;0.00;99.90;;;;;;4987924;28;20088;-65
2023/01/25 04:13:57;;;;;;;37.95;24.33;;;0.00;99.90;;;;;;4987236;28;20416;-65
2023/01/25 04:16:24;;;;;;;40.22;25.42;;;0.00;99.90;;;;;;4988305;28;20046;-65
2023/01/25 04:18:50;;;;;;;40.17;25.85;;;-0.10;99.90;;;;;;4987285;28;20405;-65
2023/01/25 04:21:16;;;;;;;36.50;22.77;;;0.00;99.90;;;;;;4987442;28;20047;-65
2023/01/25 04:23:42;;;;;;;38.10;23.40;;;0.00;99.90;;;;;;4986753;28;20046;-64
2023/01/25 04:26:11;;;;;;;42.08;26.70;;;0.00;99.90;;;;;;4986515;28;20112;-65
2023/01/25 04:28:37;;;;;;;43.92;26.95;;;0.00;99.90;;;;;;4987709;28;20433;-65
2023/01/25 04:31:04;;;;;;;42.72;26.33;;;0.00;99.90;;;;;;4986422;28;20485;-65
2023/01/25 04:33:32;;;;;;;42.97;28.58;;;0.00;99.90;;;;;;4987772;28;20062;-65
2023/01/25 04:35:58;;;;;;;44.13;27.67;;;0.00;99.90;;;;;;4986685;28;20042;-65
2023/01/25 04:38:25;;;;;;;39.97;26.65;;;0.10;99.90;;;;;;4987614;28;20073;-65
2023/01/25 04:40:51;;;;;;;43.78;28.48;;;0.00;99.90;;;;;;4986836;28;20050;-65
2023/01/25 04:43:18;;;;;;;45.10;27.58;;;0.10;99.90;;;;;;4952635;28;20129;-65
2023/01/25 04:45:45;;;;;;;48.00;27.95;;;0.00;99.90;;;;;;4969786;28;20051;-65
2023/01/25 04:48:12;;;;;;;41.65;25.98;;;0.10;99.90;;;;;;4966220;28;20416;-65
2023/01/25 04:50:39;;;;;;;47.88;28.58;;;0.10;99.90;;;;;;4987217;28;20120;-65
2023/01/25 04:53:07;;;;;;;49.45;28.42;;;0.10;99.90;;;;;;4986270;28;20046;-65
2023/01/25 04:55:34;;;;;;;45.35;29.13;;;0.00;99.90;;;;;;4970588;28;20531;-65
2023/01/25 04:58:00;;;;;;;48.72;29.08;;;0.10;99.90;;;;;;4986574;28;20042;-65
2023/01/25 05:00:28;;;;;;;41.80;27.73;;;0.10;99.90;;;;;;4987258;28;20046;-65
2023/01/25 05:02:54;;;;;;;40.70;24.70;;;0.10;99.90;;;;;;4986615;28;20053;-65
2023/01/25 05:05:20;;;;;;;37.00;24.40;;;0.10;99.90;;;;;;4986924;28;20034;-65
2023/01/25 05:07:45;;;;;;;38.67;25.48;;;0.10;99.90;;;;;;4987370;28;20567;-65
2023/01/25 05:10:11;;;;;;;46.40;26.60;;;0.00;99.90;;;;;;4986311;28;20484;-65
2023/01/25 05:12:39;;;;;;;33.90;19.83;;;0.00;99.90;;;;;;4987849;28;20038;-65
2023/01/25 05:15:06;;;;;;;37.53;22.17;;;0.00;99.90;;;;;;4982702;28;20053;-65
2023/01/25 05:17:31;;;;;;;33.13;21.92;;;-0.10;99.90;;;;;;4965971;28;20054;-65
2023/01/25 05:19:57;;;;;;;41.88;24.70;;;-0.10;99.90;;;;;;4969026;28;20382;-65
2023/01/25 05:22:23;;;;;;;39.30;23.75;;;-0.10;99.90;;;;;;4986913;28;20104;-65
2023/01/25 05:24:49;;;;;;;44.40;29.08;;;-0.10;99.90;;;;;;4987008;28;20108;-64
2023/01/25 05:27:17;;;;;;;38.17;20.73;;;0.00;99.90;;;;;;4985093;28;20126;-65
2023/01/25 05:29:44;;;;;;;41.78;25.25;;;-0.10;99.90;;;;;;4987119;28;20078;-65
2023/01/25 05:32:14;;;;;;;40.45;24.90;;;-0.10;99.90;;;;;;4986088;28;20514;-65
2023/01/25 05:34:40;;;;;;;39.63;25.40;;;-0.10;99.90;;;;;;4985978;28;20082;-65
2023/01/25 05:37:07;;;;;;;39.88;24.92;;;-0.10;99.90;;;;;;4986748;28;20047;-65
2023/01/25 05:39:33;;;;;;;32.92;18.90;;;0.00;99.90;;;;;;4986356;28;20046;-65
2023/01/25 05:41:59;;;;;;;39.47;24.90;;;-0.10;99.90;;;;;;4969471;28;20125;-65
2023/01/25 05:44:25;;;;;;;40.65;24.67;;;-0.10;99.90;;;;;;4986570;28;20053;-64
2023/01/25 05:46:51;;;;;;;36.75;21.30;;;-0.20;99.90;;;;;;4987101;28;20056;-62
2023/01/25 05:49:18;;;;;;;42.30;24.42;;;-0.20;99.90;;;;;;4986181;28;20050;-62
2023/01/25 05:51:45;;;;;;;32.70;19.67;;;-0.20;99.90;;;;;;4969756;28;20054;-62
2023/01/25 05:54:15;;;;;;;38.85;22.90;;;-0.30;99.90;;;;;;4973225;28;20042;-62
2023/01/25 05:56:42;;;;;;;41.60;26.25;;;-0.30;99.90;;;;;;4990528;28;20559;-62
2023/01/25 05:59:10;;;;;;;43.92;27.40;;;-0.30;99.90;;;;;;4988665;28;20485;-62
2023/01/25 06:01:36;;;;;;;42.88;25.80;;;-0.30;99.90;;;;;;4971473;28;20125;-63
2023/01/25 06:04:01;;;;;;;46.08;27.00;;;-0.40;99.90;;;;;;4990678;28;20141;-62
2023/01/25 06:06:28;;;;;;;44.13;26.95;;;-0.40;99.90;;;;;;4989637;28;20093;-62
2023/01/25 06:08:53;;;;;;;39.90;23.90;;;-0.40;99.90;;;;;;4990476;28;20053;-62
2023/01/25 06:11:21;;;;;;;46.25;27.52;;;-0.40;99.90;;;;;;4987806;28;20042;-62
2023/01/25 06:13:48;;;;;;;44.92;27.85;;;-0.40;99.90;;;;;;4969296;28;20039;-62
2023/01/25 06:16:16;;;;;;;44.22;28.42;;;-0.30;99.90;;;;;;4988802;28;20056;-62
2023/01/25 06:18:42;;;;;;;48.28;29.70;;;-0.40;99.90;;;;;;4971857;28;20602;-62
2023/01/25 06:21:08;;;;;;;51.60;31.02;;;-0.30;99.90;;;;;;4972094;28;20050;-62
2023/01/25 06:23:34;;;;;;;46.85;27.90;;;-0.40;99.90;;;;;;4988844;28;20493;-63
2023/01/25 06:26:06;;;;;;;55.88;32.97;;;-0.30;99.90;;;;;;4989966;28;20065;-62
2023/01/25 06:28:34;;;;;;;47.28;30.95;;;-0.40;99.90;;;;;;4988441;28;20047;-62
2023/01/25 06:31:17;;;;;;;49.38;29.45;;;-0.30;99.90;;;;;;4972150;28;20039;-62
2023/01/25 06:33:50;;;;;;;50.28;30.05;;;-0.30;99.90;;;;;;4988922;28;20129;-62
2023/01/25 06:36:19;;;;;;;55.13;33.20;;;-0.30;99.90;;;;;;4988013;28;20420;-62
2023/01/25 06:38:51;;;;;;;60.85;32.38;;;-0.30;99.90;;;;;;4989627;28;20096;-62
2023/01/25 06:41:18;;;;;;;54.22;33.20;;;-0.20;99.90;;;;;;4988853;28;20092;-62
2023/01/25 06:43:44;;;;;;;56.90;32.33;;;-0.30;99.90;;;;;;4989859;28;20047;-62
2023/01/25 06:46:13;;;;;;;58.63;35.85;;;-0.20;99.90;;;;;;4988305;28;20097;-62
2023/01/25 06:48:41;;;;;;;58.28;34.30;;;-0.20;99.90;;;;;;4968076;28;20365;-62
2023/01/25 06:51:09;;;;;;;60.72;35.60;;;-0.20;99.90;;;;;;4988520;28;20061;-62
2023/01/25 06:53:38;;;;;;;58.40;35.58;;;-0.30;99.90;;;;;;4988550;28;20046;-62
2023/01/25 06:56:10;;;;;;;55.80;34.35;;;-0.20;99.90;;;;;;4988209;28;20096;-62
2023/01/25 06:58:36;;;;;;;70.85;38.78;;;-0.30;99.90;;;;;;4987954;28;20089;-62
2023/01/25 07:01:10;;;;;;;61.03;37.60;;;-0.20;99.90;;;;;;4971773;28;20462;-63
2023/01/25 07:03:36;;;;;;;63.35;36.92;;;-0.20;99.90;;;;;;4988403;28;20066;-62
2023/01/25 07:06:05;;;;;;;59.38;36.83;;;-0.30;99.90;;;;;;4988603;28;20038;-65
2023/01/25 07:08:31;;;;;;;59.88;35.35;;;-0.20;99.90;;;;;;4988857;28;20046;-65
2023/01/25 07:11:00;;;;;;;59.50;35.72;;;-0.20;99.90;;;;;;4987602;28;20386;-65
2023/01/25 07:13:28;;;;;;;63.95;36.90;;;-0.20;99.90;;;;;;4971003;28;20042;-65
2023/01/25 07:16:03;;;;;;;61.78;36.25;;;-0.30;99.90;;;;;;4987876;28;20382;-65
2023/01/25 07:18:30;;;;;;;57.97;34.55;;;-0.30;99.90;;;;;;4989057;28;20050;-64
2023/01/25 07:21:08;;;;;;;62.33;38.08;;;-0.30;99.90;;;;;;4970618;28;20559;-65
2023/01/25 07:23:36;;;;;;;65.07;37.40;;;-0.30;99.90;;;;;;4970928;28;20066;-65
2023/01/25 07:26:03;;;;;;;55.95;33.40;;;-0.30;99.90;;;;;;4988825;28;20133;-65
2023/01/25 07:28:30;;;;;;;57.20;30.73;;;-0.40;99.90;;;;;;4988053;28;20053;-63
2023/01/25 07:31:02;;;;;;;58.65;35.83;;;-0.40;99.90;;;;;;4987621;28;20326;-64
2023/01/25 07:33:28;;;;;;;60.28;34.00;;;-0.40;99.90;;;;;;4970650;28;20065;-63
2023/01/25 07:36:03;;;;;;;65.72;35.63;;;-0.40;99.90;;;;;;4988981;28;20042;-63
2023/01/25 07:38:29;;;;;;;63.03;38.20;;;-0.40;99.90;;;;;;4987251;28;20125;-63
2023/01/25 07:40:55;;;;;;;67.00;37.80;;;-0.40;99.90;;;;;;4970195;28;20234;-63
2023/01/25 07:43:21;;;;;;;57.33;35.25;;;-0.50;99.90;;;;;;4988994;28;20089;-63
2023/01/25 07:45:50;;;;;;;68.15;37.47;;;-0.40;99.90;;;;;;4986842;28;20519;-64
2023/01/25 07:48:18;;;;;;;64.57;37.90;;;-0.40;99.90;;;;;;4988583;28;20038;-64
2023/01/25 07:51:10;;;;;;;65.05;36.47;;;-0.40;99.90;;;;;;4987597;28;20427;-64
2023/01/25 07:53:32;;;;;;;65.55;37.50;;;-0.40;99.90;;;;;;4987165;28;20508;-64
2023/01/25 07:55:58;;;;;;;50.10;25.65;;;-0.40;99.90;;;;;;4988322;28;20046;-64
2023/01/25 07:58:23;;;;;;;66.47;38.60;;;-0.40;99.90;;;;;;4987525;28;20084;-64
2023/01/25 08:00:49;;;;;;;65.32;37.35;;;-0.40;99.90;;;;;;4987174;28;20046;-64
2023/01/25 08:03:15;;;;;;;63.15;39.65;;;-0.40;99.90;;;;;;4987733;28;20653;-64
2023/01/25 08:05:44;;;;;;;71.15;39.83;;;-0.40;99.90;;;;;;4976891;28;20393;-64
2023/01/25 08:08:09;;;;;;;65.57;38.28;;;-0.40;99.90;;;;;;4987437;28;20042;-64
2023/01/25 08:10:35;;;;;;;61.67;33.45;;;-0.40;99.90;;;;;;4986528;28;20050;-64
2023/01/25 08:13:01;;;;;;;66.93;39.72;;;-0.30;99.90;;;;;;4986841;28;20526;-64
2023/01/25 08:15:27;;;;;;;67.03;39.60;;;-0.40;99.90;;;;;;4986314;28;20034;-64
2023/01/25 08:17:53;;;;;;;65.38;37.97;;;-0.30;99.90;;;;;;4986574;28;20073;-64
2023/01/25 08:20:20;;;;;;;67.97;39.58;;;-0.30;99.90;;;;;;4985768;28;20056;-64
2023/01/25 08:22:46;;;;;;;63.92;39.80;;;-0.30;99.90;;;;;;4971134;28;20050;-64
2023/01/25 08:25:12;;;;;;;69.55;41.28;;;-0.30;99.90;;;;;;4983320;28;20049;-64
2023/01/25 08:27:37;;;;;;;66.68;38.75;;;-0.20;99.90;;;;;;4987457;28;20046;-64
2023/01/25 08:30:03;;;;;;;61.70;38.25;;;-0.20;99.90;;;;;;4967486;28;20093;-64
2023/01/25 08:32:30;;;;;;;73.93;40.08;;;-0.20;99.90;;;;;;4986450;28;20085;-64
2023/01/25 08:34:55;;;;;;;69.28;39.88;;;-0.20;99.90;;;;;;4986376;28;20045;-64
2023/01/25 08:37:21;;;;;;;64.40;38.25;;;-0.20;99.90;;;;;;4986684;28;20428;-64
2023/01/25 08:39:47;;;;;;;66.18;37.15;;;-0.20;99.90;;;;;;4952141;28;20061;-64
2023/01/25 08:42:12;;;;;;;57.67;34.63;;;-0.20;99.90;;;;;;4986203;28;20413;-63
2023/01/25 08:44:38;;;;;;;55.60;32.78;;;-0.20;99.90;;;;;;4969214;28;20124;-64
2023/01/25 08:47:04;;;;;;;59.08;31.52;;;-0.30;99.90;;;;;;4969016;28;20153;-64
2023/01/25 08:49:33;;;;;;;53.60;30.80;;;-0.30;99.90;;;;;;4987643;28;20077;-64
2023/01/25 08:51:59;;;;;;;55.03;30.20;;;-0.40;99.90;;;;;;4986106;28;20086;-64
2023/01/25 08:54:24;;;;;;;56.78;34.55;;;-0.40;99.90;;;;;;4968367;28;20530;-64
2023/01/25 08:56:52;;;;;;;56.38;32.38;;;-0.40;99.90;;;;;;4986728;28;20039;-64
2023/01/25 08:59:19;;;;;;;50.25;30.63;;;-0.40;99.90;;;;;;4969512;28;20436;-64
2023/01/25 09:01:46;;;;;;;44.38;25.13;;;-0.40;99.90;;;;;;4986481;28;20041;-64
2023/01/25 09:04:12;;;;;;;50.88;28.42;;;-0.50;99.90;;;;;;4963099;28;20043;-64
2023/01/25 09:06:37;;;;;;;46.92;29.15;;;-0.50;99.90;;;;;;4976271;28;20045;-64
2023/01/25 09:09:04;;;;;;;51.08;31.05;;;-0.50;99.90;;;;;;4955054;28;20072;-64
2023/01/25 09:11:33;;;;;;;52.88;33.60;;;-0.50;99.90;;;;;;4985388;28;20106;-64
2023/01/25 09:13:59;;;;;;;50.67;30.20;;;-0.50;99.90;;;;;;4986287;28;20053;-64
2023/01/25 09:16:28;;;;;;;48.92;30.77;;;-0.50;99.90;;;;;;4969588;28;20046;-64
2023/01/25 09:18:56;;;;;;;47.17;26.90;;;-0.50;99.90;;;;;;4978400;28;21369;-64
2023/01/25 09:21:22;;;;;;;45.75;28.30;;;-0.50;99.90;;;;;;4983058;28;20046;-64
2023/01/25 09:23:49;;;;;;;39.28;22.05;;;-0.40;99.90;;;;;;4981818;28;20046;-64
2023/01/25 09:26:15;;;;;;;47.83;26.92;;;-0.50;99.90;;;;;;4982739;28;20046;-64
2023/01/25 09:28:45;;;;;;;48.60;29.70;;;-0.50;99.90;;;;;;4985608;28;20034;-64
2023/01/25 09:31:11;;;;;;;48.75;31.25;;;-0.60;99.90;;;;;;4988539;28;20058;-64
2023/01/25 09:33:38;;;;;;;47.10;27.98;;;-0.50;99.90;;;;;;4973632;28;20042;-64
2023/01/25 09:36:05;;;;;;;51.53;30.92;;;-0.50;99.90;;;;;;4989805;28;20050;-64
2023/01/25 09:38:30;;;;;;;42.40;24.42;;;-0.50;99.90;;;;;;4988484;28;20042;-64
2023/01/25 09:41:21;;;;;;;48.33;29.23;;;-0.40;99.90;;;;;;4972197;28;20069;-64
2023/01/25 09:44:03;;;;;;;51.08;30.40;;;-0.50;99.90;;;;;;4986538;28;20515;-64
2023/01/25 09:46:29;;;;;;;40.05;24.20;;;-0.50;99.90;;;;;;4988004;28;20493;-64
2023/01/25 09:49:11;;;;;;;46.05;28.75;;;-0.50;99.90;;;;;;4987617;28;20497;-64
2023/01/25 09:52:07;;;;;;;51.70;30.92;;;-0.40;99.90;;;;;;4951218;28;20038;-64
2023/01/25 09:54:38;;;;;;;42.88;28.60;;;-0.40;99.90;;;;;;4987512;28;20038;-64
2023/01/25 09:57:36;;;;;;;41.22;26.38;;;-0.40;99.90;;;;;;4988806;28;20054;-63
2023/01/25 10:00:13;;;;;;;46.25;28.27;;;-0.40;99.90;;;;;;4983231;28;20050;-64
2023/01/25 10:02:57;;;;;;;46.28;28.13;;;-0.40;99.90;;;;;;4989558;28;20049;-64
2023/01/25 10:05:27;;;;;;;25.17;15.30;;;-0.40;99.90;;;;;;4971435;28;20121;-64
2023/01/25 10:08:02;;;;;;;35.72;21.10;;;-0.40;99.90;;;;;;4989243;28;20046;-64
2023/01/25 10:10:40;;;;;;;44.47;26.55;;;-0.40;99.90;;;;;;4989227;28;20061;-64
2023/01/25 10:13:20;;;;;;;49.13;28.35;;;-0.40;99.90;;;;;;4977005;28;20081;-63
2023/01/25 10:15:54;;;;;;;42.35;24.52;;;-0.40;99.90;;;;;;4989482;28;20046;-64
2023/01/25 10:18:28;;;;;;;40.58;25.50;;;-0.40;99.90;;;;;;4985854;28;20136;-64
2023/01/25 10:21:22;;;;;;;48.15;28.88;;;-0.40;99.90;;;;;;4988720;28;20046;-64
2023/01/25 10:23:48;;;;;;;38.60;24.00;;;-0.40;99.90;;;;;;4971533;28;20437;-64
2023/01/25 10:26:23;;;;;;;45.75;25.52;;;-0.40;99.90;;;;;;4969477;28;20116;-64
2023/01/25 10:29:19;;;;;;;26.33;14.93;;;-0.40;99.90;;;;;;4971817;28;20053;-63
2023/01/25 10:31:54;;;;;;;36.63;21.38;;;-0.50;99.90;;;;;;4986675;28;20046;-64
2023/01/25 10:34:33;;;;;;;40.70;24.40;;;-0.50;99.90;;;;;;4988345;28;20180;-64
2023/01/25 10:37:12;;;;;;;48.90;27.50;;;-0.50;99.90;;;;;;4986466;28;20050;-63
2023/01/25 10:39:46;;;;;;;33.40;17.08;;;-0.50;99.90;;;;;;4987382;28;20449;-64
2023/01/25 10:42:15;;;;;;;46.53;28.35;;;-0.50;99.90;;;;;;4982237;28;20065;-64
2023/01/25 10:44:41;;;;;;;39.97;22.35;;;-0.50;99.90;;;;;;4988644;28;20513;-64
2023/01/25 10:47:41;;;;;;;35.65;20.30;;;-0.50;99.90;;;;;;4969662;28;20124;-64
2023/01/25 10:50:07;;;;;;;42.47;23.90;;;-0.50;99.90;;;;;;4953840;28;20058;-63
2023/01/25 10:52:37;;;;;;;43.70;26.55;;;-0.50;99.90;;;;;;4970869;28;20474;-63
2023/01/25 10:55:17;;;;;;;47.50;27.42;;;-0.50;99.90;;;;;;4985511;28;20088;-64
2023/01/25 10:58:03;;;;;;;47.97;26.90;;;-0.40;99.90;;;;;;4985804;28;20112;-64
2023/01/25 11:00:39;;;;;;;37.63;21.63;;;-0.40;99.90;;;;;;4986160;28;20891;-64
2023/01/25 11:03:18;;;;;;;41.83;24.20;;;-0.40;99.90;;;;;;4971078;28;20045;-64
2023/01/25 11:05:53;;;;;;;46.00;24.80;;;-0.40;99.90;;;;;;4988473;28;20161;-64
2023/01/25 11:08:38;;;;;;;50.22;28.65;;;-0.40;99.90;;;;;;4987436;28;20555;-64
2023/01/25 11:11:22;;;;;;;48.65;27.83;;;-0.40;99.90;;;;;;4987969;28;20547;-64
2023/01/25 11:13:48;;;;;;;49.80;29.70;;;-0.50;99.90;;;;;;4987907;28;20153;-64
2023/01/25 11:16:40;;;;;;;54.10;31.40;;;-0.50;99.90;;;;;;4988050;28;20046;-64
2023/01/25 11:19:23;;;;;;;54.05;29.02;;;-0.40;99.90;;;;;;4986266;28;20129;-64
2023/01/25 11:21:58;;;;;;;54.67;31.23;;;-0.30;99.90;;;;;;4987174;28;20435;-66
2023/01/25 11:24:29;;;;;;;49.63;25.58;;;-0.30;99.90;;;;;;4987096;28;20057;-65
2023/01/25 11:27:22;;;;;;;58.15;30.75;;;-0.30;99.90;;;;;;4987356;28;20057;-63
2023/01/25 11:30:14;;;;;;;53.92;29.48;;;-0.30;99.90;;;;;;4983539;28;20608;-63
2023/01/25 11:32:41;;;;;;;55.40;27.90;;;-0.20;99.90;;;;;;4987165;28;20085;-66
2023/01/25 11:35:25;;;;;;;59.10;31.13;;;-0.20;99.90;;;;;;4985644;28;20042;-63
2023/01/25 11:38:02;;;;;;;51.15;27.13;;;-0.20;99.90;;;;;;4987653;28;20046;-64
2023/01/25 11:40:38;;;;;;;53.58;28.27;;;-0.10;99.90;;;;;;4987739;28;20052;-63
2023/01/25 11:43:40;;;;;;;45.08;22.40;;;-0.10;99.90;;;;;;4983528;28;20043;-64
2023/01/25 11:46:12;;;;;;;60.75;30.85;;;-0.10;99.90;;;;;;4980768;28;20109;-63
2023/01/25 11:49:01;;;;;;;49.63;28.15;;;-0.10;99.90;;;;;;4984884;28;20044;-63
2023/01/25 11:51:34;;;;;;;57.47;29.50;;;0.00;99.90;;;;;;4986806;28;20409;-63
2023/01/25 11:54:25;;;;;;;50.08;26.20;;;0.00;99.90;;;;;;4987559;28;20129;-63
2023/01/25 11:56:53;;;;;;;55.22;28.15;;;0.00;99.90;;;;;;4987006;28;20454;-63
2023/01/25 11:59:58;;;;;;;50.30;24.77;;;0.00;99.90;;;;;;4969220;28;20062;-63
2023/01/25 12:02:45;;;;;;;46.28;25.33;;;0.10;99.90;;;;;;4936973;28;20054;-63
2023/01/25 12:05:29;;;;;;;52.60;28.52;;;0.10;99.90;;;;;;4985548;28;20061;-63
2023/01/25 12:08:15;;;;;;;50.75;25.40;;;0.10;99.90;;;;;;4966894;28;20126;-63
2023/01/25 12:10:54;;;;;;;33.63;17.48;;;0.10;99.90;;;;;;4985893;28;20076;-63
2023/01/25 12:13:45;;;;;;;44.53;22.58;;;0.10;99.90;;;;;;4984765;28;20086;-63
2023/01/25 12:16:52;;;;;;;42.25;22.25;;;0.10;99.90;;;;;;4984220;28;20058;-63
2023/01/25 12:19:39;;;;;;;47.15;24.75;;;0.10;99.90;;;;;;4940348;28;20060;-63
2023/01/25 12:22:26;;;;;;;52.85;26.75;;;0.10;99.90;;;;;;4986206;28;20401;-63
2023/01/25 12:25:21;;;;;;;54.95;28.00;;;0.20;99.90;;;;;;4984966;28;20038;-63
2023/01/25 12:28:05;;;;;;;47.95;23.65;;;0.20;99.90;;;;;;4986208;28;20042;-63
2023/01/25 12:30:50;;;;;;;47.42;22.27;;;0.20;99.90;;;;;;4987025;28;20069;-63
2023/01/25 12:33:21;;;;;;;51.88;24.33;;;0.20;99.90;;;;;;4980020;28;20046;-63
2023/01/25 12:35:56;;;;;;;49.42;25.23;;;0.30;99.90;;;;;;4986242;28;20441;-63
2023/01/25 12:38:28;;;;;;;43.50;22.05;;;0.20;99.90;;;;;;4986638;28;20042;-63
2023/01/25 12:41:03;;;;;;;51.42;26.33;;;0.20;99.90;;;;;;4986610;28;20523;-63
2023/01/25 12:43:45;;;;;;;55.05;25.92;;;0.20;99.90;;;;;;4986535;28;20085;-63
2023/01/25 12:46:42;;;;;;;55.03;28.10;;;0.20;99.90;;;;;;4969063;28;20061;-63
2023/01/25 12:49:36;;;;;;;44.63;22.80;;;0.20;99.90;;;;;;4985581;28;20104;-64